AirNav  
 
 1377 users online  

00AL Epps Airpark
Harvest, Alabama, USA

GOING TO HARVEST?


FAA INFORMATION EFFECTIVE 25 FEBRUARY 2021

Location

FAA Identifier: 00AL
Lat/Long: 34-51-53.3170N 086-46-12.9990W
34-51.888617N 086-46.216650W
34.8648103,-86.7702775
(estimated)
Elevation: 820 ft. / 250 m (estimated)
Variation: 00W (1985)
From city: 1 mile NW of HARVEST, AL
Time zone: UTC -6 (UTC -5 during Daylight Saving Time)
Zip code: 35749

Airport Operations

Airport use: Private use. Permission required prior to landing
Activation date: 10/1964
Control tower: no
ARTCC: MEMPHIS CENTER
FSS: ANNISTON FLIGHT SERVICE STATION
Attendance: UNATNDD
Wind indicator: yes
Segmented circle: no

Airport Communications

WX AWOS-3PT at MDQ (10 nm E): 120.000 (256-829-1242)
WX ASOS at HSV (14 nm S): 121.25 (256-772-8074)
WX ASOS at DCU (15 nm SW): 118.375 (256-350-4270)
WX AWOS-3 at FYM (15 nm NE): 135.275 (931-433-5916)

Nearby radio navigation aids

VOR radial/distance  VOR name  Freq  Var
RQZr299/7.8ROCKET VORTAC112.2002E
DCUr034/15.4DECATUR VOR/DME112.8001W
MSLr074/36.8MUSCLE SHOALS VORTAC116.5001E

Airport Services

Airframe service: NONE
Powerplant service: NONE

Runway Information

Runway 1/19

Dimensions: 2100 x 90 ft. / 640 x 27 m
Surface: turf
RUNWAY 1  RUNWAY 19
Traffic pattern: leftleft

Airport Ownership and Management from official FAA records

Ownership: Privately-owned
Owner: GEORGE F. EPPS
410 PEPPERWOOD CIR SW, P.O. BOX 356, P.O. BOX 356
HUNTSVILLE, AL 35801-6499
Phone 256-837-2369
Manager: GEORGE F. EPPS
410 PEPPERWOOD CIR SW, P.O. BOX 356, P.O. BOX 356
HUNTSVILLE, AL 35801-6499
Phone 256-837-2369

Airport Operational Statistics

Aircraft based on the field: 7
Single engine airplanes: 7
    

Additional Remarks

FOR CD CTC MEMPHIS ARTCC AT 901-368-8453.

Instrument Procedures

There are no published instrument procedures at 00AL.

Some nearby airports with instrument procedures:

KMDQ - Huntsville Executive Airport / Tom Sharp Jr Field (10 nm E)
KHUA - Redstone Army Airfield (12 nm S)
KHSV - Huntsville International Airport-Carl T Jones Field (14 nm S)
KDCU - Pryor Field Regional Airport (15 nm SW)
KFYM - Fayetteville Municipal Airport (15 nm NE)
 
Loc | Ops | Rwys | IFR | FBO | Links
Com | Nav | Svcs | Stats | Notes
Area around 00AL (Epps Airpark)
 
Road maps at: MapQuest Bing Google
 
Aerial photo
No photo
 
Sectional chart

 
Airport distance calculator
Flying to Epps Airpark? Find the distance to fly.

From to 00AL

Sunrise and sunset
Times for 05-Mar-2021
 Local
(UTC-6)
 Zulu
(UTC)
Morning civil twilight05:4711:47
Sunrise06:1212:12
Sunset17:4523:45
Evening civil twilight18:1000:10

Current date and time
Zulu (UTC)  05-Mar-2021 15:33:29
Local (UTC-6)  05-Mar-2021 09:33:29
 
METAR
KMDQ 
11nm E 
051515Z AUTO 03010KT 10SM CLR 10/M03 A3017 RMK A02 T01001025
KHUA 
12nm S 
051458Z AUTO 06007KT 10SM BKN170 10/M03 A3014 RMK AO2 SLP208 T01001027 50007
KHSV 
13nm S 
051453Z 05008KT 10SM FEW170 BKN250 11/M02 A3015 RMK AO2 SLP210 T01061022 50007 $
KFYM 
15nm NE 
051515Z AUTO 03010KT 10SM CLR 08/M03 A3018 RMK A01
KDCU 
16nm SW 
051453Z AUTO VRB06KT 10SM CLR 11/M01 A3017 RMK AO2 SLP215 T01061011 50006
TAF
KHSV 
13nm S 
051144Z 0512/0612 05003KT P6SM SCT150 BKN250 FM051400 01010G18KT P6SM OVC150 FM052100 03008KT P6SM BKN060 OVC100 PROB30 0521/0603 -RA FM061000 05005KT P6SM SCT150 BKN250
NOTAMs
Click for the latest NOTAMs
NOTAMs are issued by the DoD/FAA and will open in a separate window not controlled by AirNav.

 

 
 

Would you like to see your business listed on this page?

 If your business provides an interesting product or service to pilots, flight crews, aircraft, or users of the Epps Airpark, you should consider listing it here.  To start the listing process, click on the button below
 
Add a business
 

Other Pages about Epps Airpark

Update a link
 
Copyright © AirNav, LLC. All rights reserved. Privacy Policy  Contact